createdAt,value
2022-10-03T00:02:09.894Z,0.20
2022-10-03T00:05:01.948Z,0.20
2022-10-03T00:07:40.753Z,0.20
2022-10-03T00:10:32.530Z,0.20
2022-10-03T00:13:28.419Z,0.17
2022-10-03T00:16:38.229Z,0.30
2022-10-03T00:19:37.812Z,0.28
2022-10-03T00:22:26.618Z,0.30
2022-10-03T00:25:21.019Z,0.10
2022-10-03T00:28:23.782Z,0.20
2022-10-03T00:31:12.156Z,0.30
2022-10-03T00:33:55.924Z,0.15
2022-10-03T00:36:44.367Z,0.20
2022-10-03T00:39:49.840Z,0.22
2022-10-03T00:42:41.838Z,0.28
2022-10-03T00:45:45.349Z,0.25
2022-10-03T00:48:50.663Z,0.85
2022-10-03T00:51:56.031Z,0.28
2022-10-03T00:54:44.662Z,0.30
2022-10-03T00:57:33.505Z,0.47
2022-10-03T01:00:18.177Z,0.50
2022-10-03T01:03:39.624Z,0.38
2022-10-03T01:06:28.723Z,0.20
2022-10-03T01:09:20.667Z,0.20
2022-10-03T01:12:19.875Z,0.30
2022-10-03T01:14:58.964Z,0.30
2022-10-03T01:17:49.130Z,0.22
2022-10-03T01:20:28.839Z,0.30
2022-10-03T01:23:24.345Z,0.25
2022-10-03T01:26:12.635Z,0.40
2022-10-03T01:29:32.669Z,0.20
2022-10-03T01:32:14.794Z,0.50
2022-10-03T01:35:08.683Z,0.20
2022-10-03T01:38:21.318Z,0.30
2022-10-03T01:41:04.684Z,0.10
2022-10-03T01:43:47.018Z,0.50
2022-10-03T01:46:30.163Z,0.30
2022-10-03T01:49:11.480Z,0.15
2022-10-03T01:51:59.902Z,0.25
2022-10-03T01:54:33.124Z,0.30
2022-10-03T01:57:28.583Z,0.52
2022-10-03T02:00:19.389Z,0.20
2022-10-03T02:03:16.552Z,0.20
2022-10-03T02:05:49.932Z,0.47
2022-10-03T02:08:58.311Z,0.50
2022-10-03T02:11:41.013Z,0.30
2022-10-03T02:14:25.764Z,0.40
2022-10-03T02:17:25.327Z,0.25
2022-10-03T02:20:09.488Z,0.30
2022-10-03T02:22:55.805Z,0.38
2022-10-03T02:25:53.982Z,0.20
2022-10-03T02:28:48.973Z,0.20
2022-10-03T02:31:33.984Z,0.30
2022-10-03T02:34:30.350Z,0.40
2022-10-03T02:37:29.744Z,0.20
2022-10-03T02:40:29.741Z,0.30
2022-10-03T02:43:27.614Z,0.25
2022-10-03T02:46:10.333Z,0.40
2022-10-03T02:49:17.206Z,0.20
2022-10-03T02:52:34.706Z,0.40
2022-10-03T02:55:22.862Z,0.15
2022-10-03T02:58:20.746Z,0.30
2022-10-03T03:01:20.942Z,0.40
2022-10-03T03:04:18.459Z,0.30
2022-10-03T03:07:25.920Z,0.45
2022-10-03T03:10:20.387Z,0.28
2022-10-03T03:13:24.139Z,0.30
2022-10-03T03:16:21.926Z,0.30
2022-10-03T03:19:33.027Z,0.30
2022-10-03T03:26:10.132Z,0.20
2022-10-03T03:28:55.446Z,0.10
2022-10-03T03:31:56.256Z,0.65
2022-10-03T03:34:43.939Z,0.30
2022-10-03T03:37:18.915Z,0.28
2022-10-03T03:40:13.341Z,0.43
2022-10-03T03:43:03.559Z,0.60
2022-10-03T03:45:42.810Z,0.40
2022-10-03T03:48:15.869Z,0.57
2022-10-03T03:51:03.969Z,0.20
2022-10-03T03:54:04.308Z,0.20
2022-10-03T03:56:46.489Z,0.30
2022-10-03T03:59:40.704Z,0.20
2022-10-03T04:02:20.798Z,0.60
2022-10-03T04:05:23.489Z,0.35
2022-10-03T04:08:14.050Z,0.63
2022-10-03T04:11:03.030Z,0.35
2022-10-03T04:13:42.353Z,1.17
2022-10-03T04:17:08.033Z,0.70
2022-10-03T04:20:19.394Z,0.40
2022-10-03T04:23:03.858Z,0.60
2022-10-03T04:25:50.974Z,0.40
2022-10-03T04:31:20.182Z,0.20
2022-10-03T04:33:56.603Z,0.20
2022-10-03T04:36:43.962Z,0.10
2022-10-03T04:39:19.916Z,0.30
2022-10-03T04:42:02.447Z,0.73
2022-10-03T04:44:43.518Z,1.20
2022-10-03T04:47:30.766Z,0.40
2022-10-03T04:53:21.529Z,1.17
2022-10-03T04:56:23.594Z,1.27
2022-10-03T04:59:23.541Z,1.05
2022-10-03T05:02:19.185Z,1.00
2022-10-03T05:05:25.849Z,1.10
2022-10-03T05:08:00.656Z,0.60
2022-10-03T05:10:55.250Z,0.20
2022-10-03T05:13:56.819Z,0.38
2022-10-03T05:16:55.092Z,0.25
2022-10-03T05:19:43.738Z,0.40
2022-10-03T05:22:20.762Z,0.30
2022-10-03T05:25:06.815Z,0.40
2022-10-03T05:27:42.931Z,0.50
2022-10-03T05:30:22.944Z,0.30
2022-10-03T05:33:20.425Z,0.20
2022-10-03T05:36:13.765Z,0.25
2022-10-03T05:39:22.977Z,0.30
2022-10-03T05:42:22.009Z,0.20
2022-10-03T05:45:23.179Z,0.20
2022-10-03T05:48:51.399Z,0.90
2022-10-03T05:51:37.758Z,0.30
2022-10-03T05:54:46.282Z,0.50
2022-10-03T05:59:57.823Z,0.10
2022-10-03T06:02:44.799Z,0.15
2022-10-03T06:05:49.909Z,0.22
2022-10-03T06:08:50.123Z,0.20
2022-10-03T06:12:01.255Z,0.20
2022-10-03T06:15:04.837Z,0.45
2022-10-03T06:18:06.832Z,0.30
2022-10-03T06:21:14.417Z,0.20
2022-10-03T06:24:08.782Z,0.22
2022-10-03T06:26:48.480Z,0.30
2022-10-03T06:29:44.582Z,0.52
2022-10-03T06:32:50.968Z,0.50
2022-10-03T06:35:54.929Z,0.22
2022-10-03T06:38:44.493Z,0.30
2022-10-03T06:41:48.125Z,0.40
2022-10-03T06:44:58.079Z,0.13
2022-10-03T06:47:45.542Z,0.22
2022-10-03T06:50:48.670Z,0.20
2022-10-03T06:53:39.889Z,0.30
2022-10-03T06:56:50.762Z,0.40
2022-10-03T06:59:47.143Z,0.30
2022-10-03T07:02:26.766Z,0.80
2022-10-03T07:05:40.979Z,0.30
2022-10-03T07:08:30.143Z,0.40
2022-10-03T07:11:00.281Z,0.40
2022-10-03T07:14:00.586Z,0.43
2022-10-03T07:17:09.501Z,0.30
2022-10-03T07:20:07.429Z,0.20
2022-10-03T07:25:27.851Z,0.20
2022-10-03T07:28:36.836Z,0.20
2022-10-03T07:31:24.902Z,0.40
2022-10-03T07:34:13.156Z,0.30
2022-10-03T07:37:28.761Z,0.20
2022-10-03T07:40:17.093Z,0.30
2022-10-03T07:43:27.607Z,0.38
2022-10-03T07:46:28.877Z,0.30
2022-10-03T07:49:18.701Z,0.68
2022-10-03T07:52:26.121Z,0.10
2022-10-03T07:55:20.466Z,0.30
2022-10-03T07:58:00.023Z,0.30
2022-10-03T08:00:50.557Z,0.30
2022-10-03T08:03:58.093Z,0.43
2022-10-03T08:07:04.215Z,0.40
2022-10-03T08:09:40.099Z,1.10
2022-10-03T08:13:04.179Z,0.90
2022-10-03T08:15:44.090Z,0.50
2022-10-03T08:18:28.745Z,0.65
2022-10-03T08:21:01.952Z,0.88
2022-10-03T08:23:56.557Z,0.50
2022-10-03T08:26:30.053Z,0.50
2022-10-03T08:29:13.038Z,0.73
2022-10-03T08:32:10.270Z,1.00
2022-10-03T08:35:08.270Z,0.60
2022-10-03T08:41:01.599Z,0.60
2022-10-03T08:43:53.203Z,0.60
2022-10-03T08:46:50.125Z,0.85
2022-10-03T08:50:06.271Z,0.60
2022-10-03T08:53:14.723Z,0.93
2022-10-03T08:55:57.753Z,0.60
2022-10-03T08:58:58.498Z,0.47
2022-10-03T09:01:55.883Z,0.50
2022-10-03T09:04:52.291Z,0.43
2022-10-03T09:07:46.934Z,0.40
2022-10-03T09:10:38.476Z,0.32
2022-10-03T09:13:34.957Z,0.32
2022-10-03T09:16:22.401Z,0.50
2022-10-03T09:19:19.710Z,0.30
2022-10-03T09:22:14.875Z,0.68
2022-10-03T09:25:21.876Z,0.40
2022-10-03T09:28:39.416Z,0.50
2022-10-03T09:31:32.540Z,0.40
2022-10-03T09:34:43.067Z,0.40
2022-10-03T09:37:32.209Z,0.82
2022-10-03T09:40:58.017Z,1.63
2022-10-03T09:44:10.687Z,0.85
2022-10-03T09:47:17.312Z,1.42
2022-10-03T09:50:12.109Z,1.35
2022-10-03T09:52:53.574Z,1.50
2022-10-03T09:55:48.379Z,2.03
2022-10-03T09:58:41.503Z,1.90
2022-10-03T10:01:33.887Z,1.65
2022-10-03T10:04:54.303Z,1.50
2022-10-03T10:07:57.862Z,1.65
2022-10-03T10:10:40.443Z,1.70
2022-10-03T10:13:22.693Z,1.90
2022-10-03T10:16:13.871Z,1.90
2022-10-03T10:18:59.320Z,1.30
2022-10-03T10:21:41.381Z,1.35
2022-10-03T10:24:30.205Z,1.38
2022-10-03T10:27:22.341Z,1.00
2022-10-03T10:30:04.426Z,0.90
2022-10-03T10:33:11.033Z,0.98
2022-10-03T10:36:12.582Z,1.05
2022-10-03T10:39:09.191Z,1.10
2022-10-03T10:42:09.937Z,1.52
2022-10-03T10:45:00.366Z,1.38
2022-10-03T10:48:02.132Z,1.30
2022-10-03T10:51:08.818Z,1.75
2022-10-03T10:54:00.813Z,1.63
2022-10-03T10:57:07.546Z,1.70
2022-10-03T11:00:09.645Z,2.38
2022-10-03T11:02:48.761Z,2.15
2022-10-03T11:05:37.477Z,2.30
2022-10-03T11:08:39.077Z,2.35
2022-10-03T11:11:57.370Z,2.25
2022-10-03T11:15:04.100Z,1.23
2022-10-03T11:17:59.185Z,1.15
2022-10-03T11:21:02.999Z,1.30
2022-10-03T11:24:11.185Z,0.80
2022-10-03T11:27:28.548Z,0.65
2022-10-03T11:30:23.135Z,1.35
2022-10-03T11:33:15.462Z,1.45
2022-10-03T11:36:19.619Z,0.90
2022-10-03T11:39:05.251Z,1.23
2022-10-03T11:42:19.735Z,1.13
2022-10-03T11:44:59.244Z,0.90
2022-10-03T11:47:45.581Z,0.98
2022-10-03T11:50:31.083Z,0.90
2022-10-03T11:53:19.571Z,0.80
2022-10-03T11:56:14.168Z,1.00
2022-10-03T11:59:26.626Z,1.60
2022-10-03T12:02:02.692Z,1.90
2022-10-03T12:05:04.545Z,2.13
2022-10-03T12:07:59.061Z,2.00
2022-10-03T12:10:46.496Z,2.13
2022-10-03T12:13:38.103Z,1.60
2022-10-03T12:16:32.731Z,2.38
2022-10-03T12:19:26.074Z,2.08
2022-10-03T12:22:20.829Z,2.80
2022-10-03T12:24:52.229Z,3.03
2022-10-03T12:27:45.413Z,2.80
2022-10-03T12:30:21.734Z,3.75
2022-10-03T12:33:15.860Z,3.17
2022-10-03T12:36:17.936Z,2.10
2022-10-03T12:39:21.288Z,1.65
2022-10-03T12:42:33.966Z,1.30
2022-10-03T12:45:25.540Z,0.80
2022-10-03T12:48:10.576Z,0.75
2022-10-03T12:51:15.849Z,0.85
2022-10-03T12:53:49.188Z,1.20
2022-10-03T12:56:22.284Z,0.80
2022-10-03T12:59:33.518Z,0.98
2022-10-03T13:02:06.804Z,1.00
2022-10-03T13:05:01.353Z,0.80
2022-10-03T13:07:55.706Z,0.95
2022-10-03T13:10:38.714Z,1.27
2022-10-03T13:13:22.269Z,1.45
2022-10-03T13:16:06.212Z,1.00
2022-10-03T13:18:50.098Z,1.20
2022-10-03T13:21:55.950Z,1.38
2022-10-03T13:24:36.123Z,1.00
2022-10-03T13:27:35.758Z,1.13
2022-10-03T13:30:26.924Z,0.77
2022-10-03T13:33:13.830Z,0.88
2022-10-03T13:36:03.627Z,0.63
2022-10-03T13:38:53.330Z,0.75
2022-10-03T13:41:35.959Z,0.57
2022-10-03T13:44:25.387Z,0.60
2022-10-03T13:46:59.151Z,0.40
2022-10-03T13:49:39.626Z,0.85
2022-10-03T13:52:34.142Z,0.65
2022-10-03T13:55:22.790Z,0.60
2022-10-03T13:58:14.315Z,0.50
2022-10-03T14:01:15.888Z,0.70
2022-10-03T14:04:10.467Z,0.60
2022-10-03T14:06:40.856Z,0.95
2022-10-03T14:09:35.282Z,0.70
2022-10-03T14:12:54.766Z,0.60
2022-10-03T14:15:46.657Z,0.90
2022-10-03T14:18:35.142Z,1.40
2022-10-03T14:21:26.672Z,0.80
2022-10-03T14:24:18.205Z,1.00
2022-10-03T14:27:21.217Z,1.10
2022-10-03T14:30:05.153Z,0.77
2022-10-03T14:32:57.111Z,0.90
2022-10-03T14:35:55.564Z,1.20
2022-10-03T14:39:03.623Z,0.60
2022-10-03T14:41:55.212Z,0.80
2022-10-03T14:44:51.386Z,1.20
2022-10-03T14:47:23.516Z,1.13
2022-10-03T14:49:59.683Z,1.50
2022-10-03T14:53:04.019Z,1.08
2022-10-03T14:55:42.459Z,2.03
2022-10-03T14:58:34.280Z,1.42
2022-10-03T15:01:21.394Z,1.70
2022-10-03T15:04:00.955Z,2.00
2022-10-03T15:06:56.047Z,1.90
2022-10-03T15:09:44.279Z,1.60
2022-10-03T15:12:42.637Z,1.60
2022-10-03T15:15:37.371Z,1.40
2022-10-03T15:18:15.375Z,1.40
2022-10-03T15:20:47.665Z,1.00
2022-10-03T15:23:55.886Z,1.50
2022-10-03T15:26:28.780Z,1.08
2022-10-03T15:29:03.346Z,1.10
2022-10-03T15:31:39.960Z,1.48
2022-10-03T15:34:35.087Z,1.45
2022-10-03T15:37:17.095Z,1.98
2022-10-03T15:39:50.010Z,1.50
2022-10-03T15:42:34.377Z,2.35
2022-10-03T15:45:19.752Z,2.03
2022-10-03T15:47:52.230Z,1.80
2022-10-03T15:50:28.470Z,2.15
2022-10-03T15:53:17.822Z,2.25
2022-10-03T15:56:15.106Z,1.50
2022-10-03T15:59:09.077Z,1.77
2022-10-03T16:01:49.257Z,2.33
2022-10-03T16:04:23.211Z,1.60
2022-10-03T16:07:27.797Z,1.80
2022-10-03T16:10:18.707Z,1.58
2022-10-03T16:12:57.413Z,1.15
2022-10-03T16:15:53.142Z,1.45
2022-10-03T16:18:23.839Z,1.05
2022-10-03T16:21:00.864Z,1.42
2022-10-03T16:26:23.657Z,1.20
2022-10-03T16:29:26.917Z,0.90
2022-10-03T16:32:08.617Z,1.00
2022-10-03T16:34:45.702Z,1.20
2022-10-03T16:40:10.410Z,1.05
2022-10-03T16:42:53.298Z,1.23
2022-10-03T16:45:32.894Z,1.00
2022-10-03T16:48:30.495Z,1.10
2022-10-03T16:51:01.374Z,1.20
2022-10-03T16:53:32.354Z,1.25
2022-10-03T16:56:10.287Z,1.30
2022-10-03T16:58:51.936Z,1.00
2022-10-03T17:01:39.827Z,1.67
2022-10-03T17:04:27.771Z,1.10
2022-10-03T17:09:48.960Z,1.30
2022-10-03T17:12:34.095Z,1.60
2022-10-03T17:15:22.249Z,1.40
2022-10-03T17:17:57.436Z,2.45
2022-10-03T17:20:44.111Z,1.60
2022-10-03T17:23:39.546Z,2.10
2022-10-03T17:26:22.803Z,1.27
2022-10-03T17:29:06.979Z,1.45
2022-10-03T17:31:49.050Z,1.70
2022-10-03T17:34:45.374Z,1.40
2022-10-03T17:37:31.253Z,1.00
2022-10-03T17:40:36.863Z,1.33
2022-10-03T17:43:32.814Z,1.40
2022-10-03T17:46:34.379Z,1.35
2022-10-03T17:49:33.889Z,1.17
2022-10-03T17:52:05.466Z,1.42
2022-10-03T17:54:42.116Z,1.35
2022-10-03T17:57:29.004Z,1.40
2022-10-03T18:00:18.300Z,1.20
2022-10-03T18:03:11.035Z,1.20
2022-10-03T18:05:53.927Z,1.40
2022-10-03T18:08:41.608Z,1.60
2022-10-03T18:13:46.831Z,1.50
2022-10-03T18:16:46.131Z,1.33
2022-10-03T18:19:46.707Z,1.70
2022-10-03T18:22:41.129Z,1.65
2022-10-03T18:26:18.106Z,1.83
2022-10-03T18:29:02.043Z,1.38
2022-10-03T18:31:37.169Z,1.50
2022-10-03T18:34:22.960Z,2.22
2022-10-03T18:36:56.467Z,1.83
2022-10-03T18:39:40.499Z,2.45
2022-10-03T18:42:13.477Z,2.40
2022-10-03T18:44:48.038Z,2.08
2022-10-03T18:47:27.823Z,1.40
2022-10-03T18:50:22.404Z,1.38
2022-10-03T18:53:11.102Z,1.70
2022-10-03T18:55:49.043Z,1.58
2022-10-03T18:58:43.673Z,1.45
2022-10-03T19:01:44.802Z,1.50
2022-10-03T19:04:24.688Z,1.17
2022-10-03T19:06:57.938Z,1.40
2022-10-03T19:09:28.492Z,1.70
2022-10-03T19:12:14.189Z,1.75
2022-10-03T19:15:23.964Z,1.73
2022-10-03T19:18:28.368Z,1.50
2022-10-03T19:21:04.003Z,1.60
2022-10-03T19:23:41.137Z,2.17
2022-10-03T19:29:15.306Z,1.20
2022-10-03T19:32:11.407Z,1.70
2022-10-03T19:37:25.748Z,1.50
2022-10-03T19:39:56.076Z,1.20
2022-10-03T19:42:46.192Z,1.10
2022-10-03T19:45:18.948Z,1.02
2022-10-03T19:47:59.150Z,1.90
2022-10-03T19:50:37.763Z,1.00
2022-10-03T19:53:19.299Z,1.35
2022-10-03T19:55:52.530Z,1.02
2022-10-03T19:58:27.298Z,1.17
2022-10-03T20:01:02.597Z,1.20
2022-10-03T20:03:40.750Z,0.95
2022-10-03T20:06:26.341Z,0.90
2022-10-03T20:09:02.051Z,1.00
2022-10-03T20:11:47.160Z,0.88
2022-10-03T20:14:29.346Z,0.82
2022-10-03T20:17:10.360Z,0.80
2022-10-03T20:20:09.972Z,1.20
2022-10-03T20:22:40.861Z,0.95
2022-10-03T20:25:30.645Z,0.95
2022-10-03T20:28:05.455Z,1.02
2022-10-03T20:31:02.523Z,0.98
2022-10-03T20:33:39.015Z,1.55
2022-10-03T20:36:30.620Z,1.13
2022-10-03T20:39:13.061Z,1.20
2022-10-03T20:42:02.478Z,1.20
2022-10-03T20:44:50.741Z,1.20
2022-10-03T20:47:44.800Z,1.77
2022-10-03T20:50:38.997Z,1.20
2022-10-03T20:53:31.015Z,1.20
2022-10-03T20:56:20.429Z,1.50
2022-10-03T20:58:58.104Z,1.33
2022-10-03T21:01:33.103Z,1.52
2022-10-03T21:04:30.731Z,1.30
2022-10-03T21:07:39.200Z,1.65
2022-10-03T21:10:20.195Z,1.30
2022-10-03T21:12:54.151Z,1.50
2022-10-03T21:15:39.930Z,1.52
2022-10-03T21:18:19.204Z,1.50
2022-10-03T21:20:52.779Z,1.40
2022-10-03T21:23:27.279Z,1.38
2022-10-03T21:26:02.904Z,1.40
2022-10-03T21:28:35.043Z,2.10
2022-10-03T21:31:17.236Z,1.40
2022-10-03T21:34:02.060Z,1.60
2022-10-03T21:36:47.212Z,1.00
2022-10-03T21:39:39.822Z,1.10
2022-10-03T21:42:25.546Z,0.90
2022-10-03T21:45:16.432Z,1.50
2022-10-03T21:48:35.015Z,1.70
2022-10-03T21:51:24.657Z,1.10
2022-10-03T21:54:16.124Z,1.27
2022-10-03T21:56:49.088Z,2.30
2022-10-03T21:59:43.508Z,3.40
2022-10-03T22:02:41.864Z,1.92
2022-10-03T22:05:41.290Z,2.08
2022-10-03T22:08:32.574Z,1.33
2022-10-03T22:11:30.308Z,1.15
2022-10-03T22:14:30.283Z,1.15
2022-10-03T22:17:15.610Z,1.00
2022-10-03T22:20:16.897Z,1.20
2022-10-03T22:23:16.372Z,1.25
2022-10-03T22:26:21.006Z,1.30
2022-10-03T22:29:26.708Z,0.90
2022-10-03T22:32:10.805Z,1.48
2022-10-03T22:35:33.091Z,1.40
2022-10-03T22:38:14.149Z,1.42
2022-10-03T22:41:04.608Z,0.95
2022-10-03T22:43:41.668Z,0.98
2022-10-03T22:46:16.404Z,1.23
2022-10-03T22:48:53.785Z,1.20
2022-10-03T22:54:22.023Z,1.00
2022-10-03T22:57:07.166Z,1.42
2022-10-03T22:59:48.210Z,1.45
2022-10-03T23:02:20.437Z,0.73
2022-10-03T23:04:58.310Z,2.03
2022-10-03T23:07:53.783Z,1.17
2022-10-03T23:10:35.876Z,1.33
2022-10-03T23:13:29.704Z,1.50
2022-10-03T23:16:12.307Z,1.40
2022-10-03T23:18:53.093Z,1.02
2022-10-03T23:21:23.523Z,1.40
2022-10-03T23:23:54.086Z,1.20
2022-10-03T23:26:49.949Z,1.52
2022-10-03T23:29:22.358Z,0.98
2022-10-03T23:32:01.893Z,1.10
2022-10-03T23:34:40.787Z,1.35
2022-10-03T23:37:17.614Z,1.35
2022-10-03T23:40:10.111Z,1.05
2022-10-03T23:42:48.016Z,1.20
2022-10-03T23:45:24.035Z,1.00
2022-10-03T23:48:06.968Z,1.27
2022-10-03T23:50:44.401Z,1.40
2022-10-03T23:53:53.168Z,1.65
2022-10-03T23:56:29.125Z,1.13
2022-10-03T23:59:05.362Z,0.93
